Time;durP1;ratioP1;P1;durP2;ratioP2;P2;SDS_P1;SDS_P2;PMS_P1;PMS_P2;Temp;Humidity;BMP_temperature;BMP_pressure;BME280_temperature;BME280_humidity;BME280_pressure;Samples;Min_cycle;Max_cycle;Signal;HPM_P1;HPM_P2
2024/01/19 00:01:26;;;;;;;20.15;16.67;;;11.50;98.40;;;;;;5035398;28;20124;-61
2024/01/19 00:03:52;;;;;;;23.05;18.27;;;11.60;98.40;;;;;;5035515;28;20018;-61
2024/01/19 00:06:18;;;;;;;20.13;16.80;;;11.50;98.30;;;;;;5035453;28;20080;-61
2024/01/19 00:08:44;;;;;;;22.55;18.73;;;11.50;97.90;;;;;;5034991;28;20023;-62
2024/01/19 00:11:14;;;;;;;21.77;17.75;;;11.50;97.90;;;;;;5035248;28;20025;-61
2024/01/19 00:13:41;;;;;;;18.90;16.45;;;11.50;98.10;;;;;;5035228;28;20029;-62
2024/01/19 00:16:06;;;;;;;23.65;18.80;;;11.50;97.80;;;;;;5035102;28;20053;-59
2024/01/19 00:18:32;;;;;;;19.40;16.08;;;11.50;98.00;;;;;;5035044;28;20452;-60
2024/01/19 00:20:59;;;;;;;16.90;14.95;;;11.50;98.30;;;;;;5034854;28;20083;-60
2024/01/19 00:23:24;;;;;;;18.05;15.60;;;11.50;98.20;;;;;;5035087;28;20380;-60
2024/01/19 00:25:50;;;;;;;21.48;18.63;;;11.50;98.50;;;;;;5035200;28;20030;-61
2024/01/19 00:28:16;;;;;;;17.08;14.65;;;11.50;98.60;;;;;;5035110;28;20379;-61
2024/01/19 00:30:41;;;;;;;18.05;15.43;;;11.40;98.70;;;;;;5034902;28;20025;-63
2024/01/19 00:33:07;;;;;;;16.67;14.27;;;11.50;98.80;;;;;;5034521;28;20105;-60
2024/01/19 00:35:33;;;;;;;18.13;15.45;;;11.50;98.50;;;;;;5034845;28;20036;-61
2024/01/19 00:37:58;;;;;;;15.82;13.57;;;11.50;98.60;;;;;;5034823;28;20022;-63
2024/01/19 00:40:24;;;;;;;14.93;13.00;;;11.50;98.50;;;;;;5034666;28;20144;-61
2024/01/19 00:42:50;;;;;;;15.23;13.25;;;11.50;98.20;;;;;;5034665;28;20042;-61
2024/01/19 00:45:16;;;;;;;16.90;13.60;;;11.60;98.00;;;;;;5034581;28;20476;-60
2024/01/19 00:47:41;;;;;;;15.30;13.57;;;11.60;98.00;;;;;;5034574;28;20478;-62
2024/01/19 00:50:08;;;;;;;15.57;12.85;;;11.60;97.90;;;;;;5034477;28;20025;-59
2024/01/19 00:52:34;;;;;;;14.32;12.82;;;11.50;98.50;;;;;;5034476;28;20053;-63
2024/01/19 00:55:01;;;;;;;15.77;12.68;;;11.60;98.60;;;;;;5034562;28;20036;-62
2024/01/19 00:57:26;;;;;;;17.33;15.02;;;11.50;98.70;;;;;;5034383;28;20435;-64
2024/01/19 00:59:52;;;;;;;17.92;15.25;;;11.50;98.70;;;;;;5034373;28;20021;-63
2024/01/19 01:02:19;;;;;;;19.10;15.40;;;11.50;98.90;;;;;;5034283;28;20100;-62
2024/01/19 01:04:45;;;;;;;16.95;13.77;;;11.50;99.40;;;;;;5033934;28;20133;-63
2024/01/19 01:07:10;;;;;;;20.60;15.23;;;11.50;99.40;;;;;;5034502;28;20100;-61
2024/01/19 01:09:36;;;;;;;15.48;13.60;;;11.50;99.30;;;;;;5034371;28;20018;-62
2024/01/19 01:12:02;;;;;;;21.15;17.42;;;11.50;99.30;;;;;;5034001;28;20096;-61
2024/01/19 01:14:28;;;;;;;18.20;16.17;;;11.50;99.40;;;;;;5034105;28;20084;-61
2024/01/19 01:16:54;;;;;;;17.98;15.40;;;11.30;99.60;;;;;;5033988;28;20419;-63
2024/01/19 01:19:20;;;;;;;17.52;14.73;;;11.40;99.70;;;;;;5032756;28;20085;-62
2024/01/19 01:21:45;;;;;;;27.10;21.52;;;11.40;99.80;;;;;;5034165;28;20029;-61
2024/01/19 01:24:11;;;;;;;59.50;44.70;;;11.30;99.90;;;;;;5033767;28;20535;-63
2024/01/19 01:26:37;;;;;;;61.28;46.97;;;11.10;99.90;;;;;;5033713;28;20040;-63
2024/01/19 01:29:02;;;;;;;56.03;43.25;;;11.00;99.90;;;;;;5033731;28;20092;-62
2024/01/19 01:31:28;;;;;;;47.55;35.75;;;10.80;99.90;;;;;;5033520;28;20472;-62
2024/01/19 01:33:54;;;;;;;41.55;33.58;;;10.80;99.90;;;;;;5033924;28;20022;-63
2024/01/19 01:36:19;;;;;;;35.78;29.98;;;10.90;99.90;;;;;;5033578;28;20487;-63
2024/01/19 01:38:45;;;;;;;32.03;26.42;;;11.00;99.90;;;;;;5033736;28;20028;-62
2024/01/19 01:41:11;;;;;;;27.17;22.85;;;11.10;99.90;;;;;;5033618;28;20075;-63
2024/01/19 01:43:36;;;;;;;24.70;21.73;;;11.20;99.90;;;;;;5033514;28;20100;-62
2024/01/19 01:46:02;;;;;;;24.40;19.90;;;11.20;99.90;;;;;;5033510;28;20032;-63
2024/01/19 01:48:28;;;;;;;21.77;18.55;;;11.30;99.90;;;;;;5033431;28;20022;-62
2024/01/19 01:50:55;;;;;;;19.67;16.92;;;11.30;99.90;;;;;;5033364;28;20108;-63
2024/01/19 01:53:23;;;;;;;19.48;16.55;;;11.30;99.90;;;;;;5033667;28;20025;-61
2024/01/19 01:55:49;;;;;;;18.05;15.48;;;11.40;99.90;;;;;;5033529;28;20057;-65
2024/01/19 01:58:16;;;;;;;21.17;16.13;;;11.40;99.90;;;;;;5033511;28;20025;-61
2024/01/19 02:00:45;;;;;;;15.85;13.57;;;11.40;99.90;;;;;;5033223;28;20383;-65
2024/01/19 02:03:12;;;;;;;14.10;12.45;;;11.40;99.90;;;;;;5033322;28;20013;-62
2024/01/19 02:05:38;;;;;;;22.00;17.17;;;11.40;99.90;;;;;;5031979;28;20048;-62
2024/01/19 02:08:04;;;;;;;15.07;13.45;;;11.40;99.90;;;;;;5033248;28;20026;-63
2024/01/19 02:10:29;;;;;;;22.55;17.52;;;11.40;99.90;;;;;;5033155;28;20033;-63
2024/01/19 02:12:55;;;;;;;17.60;15.00;;;11.40;99.90;;;;;;5033016;28;20049;-62
2024/01/19 02:15:23;;;;;;;22.55;16.63;;;11.30;99.90;;;;;;5032931;28;20108;-61
2024/01/19 02:17:50;;;;;;;25.95;21.35;;;11.30;99.90;;;;;;5033429;28;20053;-64
2024/01/19 02:20:16;;;;;;;20.23;16.15;;;11.20;99.90;;;;;;5032792;28;20046;-63
2024/01/19 02:22:46;;;;;;;21.13;17.23;;;11.10;99.90;;;;;;5033072;28;20021;-62
2024/01/19 02:25:13;;;;;;;17.83;15.15;;;11.20;99.90;;;;;;5033302;28;20104;-62
2024/01/19 02:27:39;;;;;;;15.52;13.73;;;11.20;99.90;;;;;;5032937;28;20384;-64
2024/01/19 02:30:13;;;;;;;19.00;15.27;;;11.30;99.90;;;;;;5032745;28;20025;-64
2024/01/19 02:32:39;;;;;;;17.90;14.70;;;11.30;99.90;;;;;;5035531;28;20045;-63
2024/01/19 02:35:05;;;;;;;15.73;13.52;;;11.20;99.90;;;;;;5036847;28;20550;-64
2024/01/19 02:37:31;;;;;;;16.67;13.63;;;11.20;99.90;;;;;;5036917;28;20029;-62
2024/01/19 02:39:57;;;;;;;12.88;11.27;;;11.20;99.90;;;;;;5036908;28;20025;-64
2024/01/19 02:42:22;;;;;;;14.52;12.60;;;11.20;99.90;;;;;;5036812;28;20503;-62
2024/01/19 02:44:48;;;;;;;14.52;12.43;;;11.20;99.90;;;;;;5036811;28;20030;-63
2024/01/19 02:47:14;;;;;;;15.38;13.23;;;11.10;99.90;;;;;;5037095;28;20104;-61
2024/01/19 02:49:39;;;;;;;14.73;11.52;;;11.10;99.90;;;;;;5037033;28;20022;-64
2024/01/19 02:52:05;;;;;;;11.60;10.40;;;11.10;99.90;;;;;;5036606;28;20021;-61
2024/01/19 02:54:31;;;;;;;12.48;10.48;;;11.10;99.90;;;;;;5036713;28;20029;-63
2024/01/19 02:56:57;;;;;;;11.82;10.18;;;11.10;99.90;;;;;;5036620;28;20376;-61
2024/01/19 02:59:22;;;;;;;11.15;9.63;;;11.10;99.90;;;;;;5036336;28;20104;-62
2024/01/19 03:01:48;;;;;;;11.73;9.68;;;11.10;99.90;;;;;;5036564;28;20426;-63
2024/01/19 03:04:14;;;;;;;12.20;10.43;;;11.10;99.90;;;;;;5036531;28;20475;-63
2024/01/19 03:06:39;;;;;;;11.35;9.85;;;11.10;99.90;;;;;;5036448;28;20013;-61
2024/01/19 03:09:05;;;;;;;14.55;11.50;;;11.20;99.90;;;;;;5036533;28;20072;-62
2024/01/19 03:11:31;;;;;;;14.90;11.98;;;11.10;99.90;;;;;;5036398;28;20025;-62
2024/01/19 03:13:56;;;;;;;15.48;13.48;;;11.20;99.90;;;;;;5036004;28;20032;-63
2024/01/19 03:16:22;;;;;;;22.67;17.88;;;11.20;99.90;;;;;;5036275;28;20451;-61
2024/01/19 03:18:48;;;;;;;23.98;17.98;;;11.00;99.90;;;;;;5036164;28;20026;-62
2024/01/19 03:21:13;;;;;;;24.73;19.50;;;10.90;99.90;;;;;;5036264;28;20471;-62
2024/01/19 03:23:39;;;;;;;21.90;17.90;;;10.90;99.90;;;;;;5035987;28;20069;-62
2024/01/19 03:26:05;;;;;;;24.05;17.48;;;10.90;99.90;;;;;;5036118;28;20025;-63
2024/01/19 03:28:31;;;;;;;37.85;28.70;;;11.00;99.90;;;;;;5035952;28;20025;-63
2024/01/19 03:30:57;;;;;;;37.25;28.35;;;11.10;99.90;;;;;;5036183;28;20035;-61
2024/01/19 03:33:23;;;;;;;51.97;39.33;;;11.00;99.90;;;;;;5036047;28;20036;-63
2024/01/19 03:35:49;;;;;;;37.20;29.08;;;11.00;99.90;;;;;;5035856;28;20444;-60
2024/01/19 03:38:15;;;;;;;33.40;27.17;;;11.00;99.90;;;;;;5035848;28;20028;-64
2024/01/19 03:40:41;;;;;;;29.52;23.58;;;11.00;99.90;;;;;;5035808;28;20065;-61
2024/01/19 03:43:06;;;;;;;24.10;19.60;;;11.10;99.90;;;;;;5035043;28;20057;-62
2024/01/19 03:45:32;;;;;;;21.50;17.67;;;11.20;99.90;;;;;;5035666;28;20030;-64
2024/01/19 03:47:58;;;;;;;19.05;15.75;;;11.20;99.90;;;;;;5035831;28;20083;-61
2024/01/19 03:50:23;;;;;;;18.67;14.88;;;11.20;99.90;;;;;;5035718;28;20033;-61
2024/01/19 03:52:49;;;;;;;16.73;13.25;;;11.20;99.90;;;;;;5035699;28;20469;-64
2024/01/19 03:55:16;;;;;;;15.63;13.18;;;11.30;99.90;;;;;;5035707;28;20029;-63
2024/01/19 03:57:41;;;;;;;13.90;11.40;;;11.20;99.90;;;;;;5035335;28;20057;-62
2024/01/19 04:00:08;;;;;;;13.82;11.48;;;11.20;99.90;;;;;;5035748;28;20045;-61
2024/01/19 04:02:35;;;;;;;12.68;10.70;;;11.30;99.90;;;;;;5035320;28;20032;-63
2024/01/19 04:05:01;;;;;;;12.18;9.90;;;11.30;99.90;;;;;;5035476;28;20113;-63
2024/01/19 04:07:26;;;;;;;11.23;9.02;;;11.30;99.90;;;;;;5035338;28;20057;-61
2024/01/19 04:09:52;;;;;;;9.63;8.63;;;11.30;99.90;;;;;;5035554;28;20021;-61
2024/01/19 04:12:18;;;;;;;9.32;8.40;;;11.40;99.90;;;;;;5035348;28;20028;-61
2024/01/19 04:14:45;;;;;;;8.93;7.97;;;11.30;99.90;;;;;;5035240;28;20116;-62
2024/01/19 04:17:12;;;;;;;10.75;8.55;;;11.30;99.90;;;;;;5035085;28;20028;-63
2024/01/19 04:19:38;;;;;;;9.10;8.10;;;11.40;99.90;;;;;;5034941;28;20049;-61
2024/01/19 04:22:04;;;;;;;9.18;7.82;;;11.40;99.90;;;;;;5035018;28;20037;-65
2024/01/19 04:24:30;;;;;;;9.65;7.40;;;11.40;99.90;;;;;;5034994;28;20484;-62
2024/01/19 04:26:56;;;;;;;17.90;12.93;;;11.30;99.90;;;;;;5034742;28;20099;-60
2024/01/19 04:29:22;;;;;;;46.33;39.30;;;11.20;99.90;;;;;;5035157;28;20045;-64
2024/01/19 04:31:48;;;;;;;48.40;37.78;;;11.00;99.90;;;;;;5034885;28;20379;-61
2024/01/19 04:34:14;;;;;;;34.10;30.02;;;10.70;99.90;;;;;;5034746;28;20025;-62
2024/01/19 04:36:40;;;;;;;26.27;22.95;;;10.80;99.90;;;;;;5035033;28;20096;-61
2024/01/19 04:39:05;;;;;;;23.73;20.40;;;11.00;99.90;;;;;;5034820;28;20052;-62
2024/01/19 04:41:32;;;;;;;20.23;17.63;;;11.00;99.90;;;;;;5034408;28;20113;-62
2024/01/19 04:43:58;;;;;;;19.73;16.10;;;11.10;99.90;;;;;;5034672;28;20104;-62
2024/01/19 04:46:24;;;;;;;18.88;14.77;;;11.20;99.90;;;;;;5034667;28;20057;-64
2024/01/19 04:48:49;;;;;;;15.30;13.43;;;11.10;99.90;;;;;;5034491;28;20403;-62
2024/01/19 04:51:15;;;;;;;10.32;9.23;;;11.20;99.90;;;;;;5034627;28;20021;-64
2024/01/19 04:53:41;;;;;;;10.35;8.68;;;11.20;99.90;;;;;;5034314;28;20045;-63
2024/01/19 04:56:07;;;;;;;9.32;8.18;;;11.20;99.90;;;;;;5033448;28;20037;-64
2024/01/19 04:58:34;;;;;;;8.75;7.40;;;11.40;99.90;;;;;;5034663;28;20022;-62
2024/01/19 05:01:01;;;;;;;11.85;8.68;;;11.50;99.90;;;;;;5034344;28;20029;-63
2024/01/19 05:03:26;;;;;;;10.77;8.27;;;11.60;99.90;;;;;;5034251;28;20026;-61
2024/01/19 05:05:52;;;;;;;9.02;7.13;;;11.70;99.90;;;;;;5034480;28;20032;-61
2024/01/19 05:08:18;;;;;;;7.72;6.75;;;11.80;99.90;;;;;;5034350;28;20025;-62
2024/01/19 05:10:43;;;;;;;6.93;6.07;;;11.90;99.90;;;;;;5034000;28;20464;-64
2024/01/19 05:13:09;;;;;;;9.40;6.57;;;11.90;99.90;;;;;;5034156;28;20072;-63
2024/01/19 05:15:35;;;;;;;5.43;4.75;;;12.00;99.90;;;;;;5034012;28;20451;-62
2024/01/19 05:18:01;;;;;;;6.70;4.70;;;12.00;99.90;;;;;;5034065;28;20025;-64
2024/01/19 05:20:27;;;;;;;4.57;4.13;;;12.00;99.90;;;;;;5033612;28;20455;-64
2024/01/19 05:22:54;;;;;;;4.72;3.38;;;11.90;99.90;;;;;;5034028;28;20025;-63
2024/01/19 05:25:20;;;;;;;4.05;3.60;;;12.00;99.90;;;;;;5033825;28;20032;-62
2024/01/19 05:27:53;;;;;;;3.47;3.03;;;12.00;99.90;;;;;;5033767;28;20025;-64
2024/01/19 05:30:23;;;;;;;3.75;2.90;;;12.00;99.90;;;;;;5033786;28;20483;-63
2024/01/19 05:32:49;;;;;;;2.50;2.30;;;12.10;99.90;;;;;;5033797;28;20045;-63
2024/01/19 05:35:15;;;;;;;2.92;2.70;;;12.10;99.90;;;;;;5033781;28;20053;-62
2024/01/19 05:37:40;;;;;;;2.55;2.15;;;12.00;99.90;;;;;;5033706;28;20027;-62
2024/01/19 05:40:06;;;;;;;3.47;2.75;;;12.10;99.90;;;;;;5032285;28;20471;-62
2024/01/19 05:42:32;;;;;;;5.18;3.30;;;12.10;99.90;;;;;;5032227;28;20541;-61
2024/01/19 05:44:58;;;;;;;5.25;3.80;;;12.00;99.90;;;;;;5033547;28;20017;-62
2024/01/19 05:47:23;;;;;;;4.70;2.92;;;11.90;99.90;;;;;;5033498;28;20044;-62
2024/01/19 05:49:49;;;;;;;2.65;2.15;;;11.90;99.90;;;;;;5033353;28;20051;-64
2024/01/19 05:52:15;;;;;;;3.00;1.95;;;12.00;99.90;;;;;;5033558;28;20061;-62
2024/01/19 05:54:41;;;;;;;2.38;2.00;;;12.00;99.90;;;;;;5033379;28;20022;-60
2024/01/19 05:57:08;;;;;;;1.85;1.50;;;12.00;99.90;;;;;;5033451;28;20022;-63
2024/01/19 05:59:38;;;;;;;1.70;1.50;;;12.00;99.90;;;;;;5033591;28;20033;-63
2024/01/19 06:02:04;;;;;;;1.13;1.00;;;12.00;99.90;;;;;;5033418;28;20156;-63
2024/01/19 06:04:36;;;;;;;1.10;1.00;;;11.90;99.90;;;;;;5033132;28;20487;-61
2024/01/19 06:07:03;;;;;;;2.13;0.93;;;11.70;99.90;;;;;;5032480;28;20380;-62
2024/01/19 06:09:29;;;;;;;1.15;0.80;;;11.40;99.90;;;;;;5034897;28;20029;-64
2024/01/19 06:11:55;;;;;;;0.70;0.70;;;11.20;99.90;;;;;;5053062;28;20063;-64
2024/01/19 06:14:20;;;;;;;1.02;0.93;;;11.00;99.90;;;;;;5053022;28;20132;-63
2024/01/19 06:16:46;;;;;;;0.98;0.98;;;10.90;99.90;;;;;;5051867;28;20021;-62
2024/01/19 06:19:12;;;;;;;0.90;0.90;;;10.80;99.90;;;;;;5052659;28;20454;-64
2024/01/19 06:21:38;;;;;;;1.48;1.30;;;10.80;99.90;;;;;;5051741;28;20029;-62
2024/01/19 06:24:04;;;;;;;1.15;1.05;;;10.70;99.90;;;;;;5052746;28;20032;-61
2024/01/19 06:26:32;;;;;;;1.10;0.93;;;10.80;99.90;;;;;;5052866;28;20091;-65
2024/01/19 06:29:01;;;;;;;1.10;1.00;;;10.80;99.90;;;;;;5052960;28;20051;-63
2024/01/19 06:31:27;;;;;;;1.42;1.33;;;10.80;99.90;;;;;;5052968;28;20025;-61
2024/01/19 06:33:52;;;;;;;1.20;1.10;;;10.80;99.90;;;;;;5052836;28;20024;-63
2024/01/19 06:36:18;;;;;;;1.40;1.30;;;10.80;99.80;;;;;;5052140;28;20030;-62
2024/01/19 06:38:43;;;;;;;2.15;1.52;;;10.70;99.70;;;;;;5052710;28;20078;-63
2024/01/19 06:41:09;;;;;;;1.40;1.30;;;10.70;98.90;;;;;;5052903;28;20021;-64
2024/01/19 06:43:36;;;;;;;1.40;1.30;;;10.60;98.30;;;;;;5052637;28;20483;-63
2024/01/19 06:46:01;;;;;;;1.67;1.58;;;10.60;98.40;;;;;;5052667;28;20064;-62
2024/01/19 06:48:27;;;;;;;1.80;1.70;;;10.60;99.30;;;;;;5052884;28;20098;-62
2024/01/19 06:50:53;;;;;;;1.30;1.20;;;10.60;99.30;;;;;;5052530;28;20151;-61
2024/01/19 06:53:18;;;;;;;1.95;1.40;;;10.60;99.30;;;;;;5052853;28;20021;-63
2024/01/19 06:55:44;;;;;;;1.10;1.00;;;10.60;98.90;;;;;;5052699;28;20033;-63
2024/01/19 06:58:10;;;;;;;1.20;1.10;;;10.60;98.60;;;;;;5052524;28;20075;-63
2024/01/19 07:00:35;;;;;;;1.38;1.27;;;10.60;98.60;;;;;;5052774;28;20032;-61
2024/01/19 07:03:01;;;;;;;2.03;1.50;;;10.60;98.50;;;;;;5052102;28;20048;-62
2024/01/19 07:05:27;;;;;;;2.15;1.95;;;10.60;97.90;;;;;;5052114;28;20028;-63
2024/01/19 07:07:53;;;;;;;1.55;1.45;;;10.50;98.50;;;;;;5052500;28;20480;-64
2024/01/19 07:10:19;;;;;;;3.53;3.22;;;10.50;98.70;;;;;;5052644;28;20103;-63
2024/01/19 07:12:45;;;;;;;4.22;3.85;;;10.40;98.50;;;;;;5052593;28;20021;-62
2024/01/19 07:15:10;;;;;;;4.32;3.78;;;10.40;98.60;;;;;;5052216;28;20029;-62
2024/01/19 07:17:36;;;;;;;3.53;3.22;;;10.40;98.60;;;;;;5043773;28;20025;-62
2024/01/19 07:20:05;;;;;;;3.25;3.00;;;10.40;98.00;;;;;;5046122;28;20068;-63
2024/01/19 07:22:31;;;;;;;4.65;4.18;;;10.50;98.00;;;;;;5045378;28;20052;-62
2024/01/19 07:24:57;;;;;;;3.15;2.85;;;10.50;97.80;;;;;;5043473;28;20417;-63
2024/01/19 07:27:22;;;;;;;2.50;2.30;;;10.40;97.20;;;;;;5046496;28;20029;-63
2024/01/19 07:29:48;;;;;;;2.17;2.00;;;10.30;96.40;;;;;;5044902;28;20018;-62
2024/01/19 07:32:15;;;;;;;2.28;1.90;;;10.20;97.30;;;;;;5043690;28;20021;-61
2024/01/19 07:34:41;;;;;;;1.88;1.77;;;10.20;97.50;;;;;;5045996;28;20029;-61
2024/01/19 07:37:06;;;;;;;1.50;1.40;;;10.30;97.30;;;;;;5043495;28;20520;-61
2024/01/19 07:39:32;;;;;;;2.33;2.13;;;10.30;97.50;;;;;;5045382;28;20028;-62
2024/01/19 07:41:58;;;;;;;1.90;1.70;;;10.20;97.10;;;;;;5040150;28;20029;-63
2024/01/19 07:44:24;;;;;;;1.70;1.60;;;10.20;97.90;;;;;;5042048;28;20021;-63
2024/01/19 07:46:51;;;;;;;2.05;1.90;;;10.20;98.40;;;;;;5043941;28;20028;-64
2024/01/19 07:49:21;;;;;;;2.13;1.92;;;10.20;98.10;;;;;;5043147;28;20108;-62
2024/01/19 07:51:49;;;;;;;1.90;1.80;;;10.20;97.90;;;;;;5043755;28;20040;-61
2024/01/19 07:54:17;;;;;;;1.73;1.63;;;10.30;97.60;;;;;;5043534;28;20479;-63
2024/01/19 07:56:43;;;;;;;3.05;1.75;;;10.20;96.50;;;;;;5042102;28;20035;-63
2024/01/19 07:59:09;;;;;;;1.40;1.30;;;10.10;96.90;;;;;;5040856;28;20041;-64
2024/01/19 08:01:35;;;;;;;1.77;1.67;;;9.90;95.80;;;;;;5044679;28;20115;-62
2024/01/19 08:04:00;;;;;;;1.80;1.70;;;9.90;96.60;;;;;;5041317;28;20028;-61
2024/01/19 08:06:26;;;;;;;2.00;1.90;;;9.70;96.20;;;;;;5041257;28;20471;-61
2024/01/19 08:08:52;;;;;;;2.08;1.85;;;9.60;96.30;;;;;;5042327;28;20033;-61
2024/01/19 08:11:18;;;;;;;2.63;2.40;;;9.50;97.40;;;;;;5044137;28;20039;-63
2024/01/19 08:13:45;;;;;;;4.30;3.90;;;9.60;97.60;;;;;;5038745;28;20028;-62
2024/01/19 08:16:11;;;;;;;3.50;3.20;;;9.30;98.60;;;;;;5042276;28;20120;-63
2024/01/19 08:18:37;;;;;;;2.55;2.35;;;9.10;98.60;;;;;;5044937;28;20021;-61
2024/01/19 08:21:03;;;;;;;2.65;2.45;;;9.00;99.30;;;;;;5041077;28;20490;-62
2024/01/19 08:23:33;;;;;;;2.47;2.22;;;8.80;99.90;;;;;;5040543;28;20018;-61
2024/01/19 08:25:58;;;;;;;2.00;1.90;;;8.90;99.90;;;;;;5044998;28;20025;-61
2024/01/19 08:28:24;;;;;;;2.05;1.88;;;8.70;99.90;;;;;;5042395;28;20049;-62
2024/01/19 08:30:50;;;;;;;2.35;2.15;;;8.70;99.90;;;;;;5043134;28;20052;-63
2024/01/19 08:33:16;;;;;;;2.58;2.38;;;8.70;99.90;;;;;;5038246;28;20414;-62
2024/01/19 08:35:42;;;;;;;2.67;2.47;;;8.70;99.90;;;;;;5041742;28;20029;-62
2024/01/19 08:38:08;;;;;;;3.20;2.88;;;8.80;99.90;;;;;;5043691;28;20028;-63
2024/01/19 08:40:34;;;;;;;3.80;3.50;;;8.70;99.90;;;;;;5041044;28;20022;-62
2024/01/19 08:43:00;;;;;;;2.65;2.40;;;8.80;99.90;;;;;;5041142;28;20036;-63
2024/01/19 08:45:28;;;;;;;2.50;2.30;;;8.70;99.90;;;;;;5048972;28;20025;-64
2024/01/19 08:47:56;;;;;;;1.63;1.52;;;8.70;99.90;;;;;;5041085;28;20048;-63
2024/01/19 08:50:22;;;;;;;1.58;1.48;;;8.60;99.90;;;;;;5043553;28;20490;-63
2024/01/19 08:52:48;;;;;;;1.20;1.10;;;8.60;99.90;;;;;;5044877;28;20143;-63
2024/01/19 08:55:13;;;;;;;1.40;1.20;;;8.70;99.80;;;;;;5042994;28;20040;-60
2024/01/19 08:57:39;;;;;;;1.45;1.35;;;8.70;99.90;;;;;;5036021;28;20027;-62
2024/01/19 09:00:07;;;;;;;1.90;1.80;;;8.70;99.90;;;;;;5033677;28;20023;-61
2024/01/19 09:02:33;;;;;;;3.22;2.60;;;8.60;99.60;;;;;;5035807;28;20033;-61
2024/01/19 09:04:59;;;;;;;2.33;2.13;;;8.70;99.90;;;;;;5034874;28;20091;-60
2024/01/19 09:07:25;;;;;;;1.73;1.63;;;8.60;99.90;;;;;;5034311;28;20022;-63
2024/01/19 09:09:51;;;;;;;1.80;1.70;;;8.70;99.90;;;;;;5034270;28;20033;-62
2024/01/19 09:12:17;;;;;;;1.10;1.00;;;8.70;98.90;;;;;;5034048;28;20026;-63
2024/01/19 09:14:43;;;;;;;1.10;1.00;;;8.50;98.30;;;;;;5033845;28;20113;-62
2024/01/19 09:17:09;;;;;;;0.95;0.90;;;8.20;97.30;;;;;;5038660;28;20104;-63
2024/01/19 09:19:34;;;;;;;1.20;1.10;;;7.90;97.00;;;;;;5041626;28;20381;-62
2024/01/19 09:22:01;;;;;;;0.80;0.80;;;7.60;98.60;;;;;;5033904;28;20036;-63
2024/01/19 09:24:27;;;;;;;0.80;0.80;;;7.30;98.80;;;;;;5032992;28;20043;-63
2024/01/19 09:26:54;;;;;;;1.13;0.85;;;7.10;99.30;;;;;;5034164;28;20029;-64
2024/01/19 09:29:21;;;;;;;0.68;0.68;;;7.00;99.90;;;;;;5034092;28;20065;-61
2024/01/19 09:31:47;;;;;;;1.58;1.35;;;7.10;99.90;;;;;;5033546;28;20044;-63
2024/01/19 09:34:16;;;;;;;0.75;0.75;;;7.20;99.90;;;;;;5032986;28;20025;-60
2024/01/19 09:36:42;;;;;;;0.80;0.63;;;7.30;99.10;;;;;;5033392;28;20029;-63
2024/01/19 09:39:08;;;;;;;1.08;0.80;;;7.40;98.10;;;;;;5033895;28;20032;-62
2024/01/19 09:41:46;;;;;;;1.48;1.20;;;7.40;97.00;;;;;;5033288;28;20460;-64
2024/01/19 09:44:12;;;;;;;0.93;0.88;;;7.30;97.40;;;;;;5033586;28;20022;-63
2024/01/19 09:46:53;;;;;;;1.30;1.02;;;7.20;99.60;;;;;;5033160;28;20029;-61
2024/01/19 09:49:37;;;;;;;1.77;1.65;;;7.30;98.20;;;;;;5032652;28;20049;-64
2024/01/19 09:52:11;;;;;;;3.13;2.05;;;7.10;99.90;;;;;;5033717;28;20044;-63
2024/01/19 09:54:39;;;;;;;2.22;1.90;;;7.10;99.20;;;;;;5032592;28;20025;-64
2024/01/19 09:57:05;;;;;;;1.60;1.50;;;7.00;97.90;;;;;;5051954;28;20059;-61
2024/01/19 09:59:32;;;;;;;1.92;1.67;;;6.90;99.40;;;;;;5053283;28;20535;-61
2024/01/19 10:02:01;;;;;;;2.63;2.28;;;6.90;99.90;;;;;;5053317;28;20021;-60
2024/01/19 10:04:27;;;;;;;1.58;1.48;;;6.80;99.90;;;;;;5053062;28;20541;-62
2024/01/19 10:06:55;;;;;;;1.85;1.73;;;6.70;99.90;;;;;;5053095;28;20033;-63
2024/01/19 10:09:22;;;;;;;1.33;1.23;;;6.70;99.90;;;;;;5053112;28;20529;-61
2024/01/19 10:11:52;;;;;;;1.25;0.85;;;6.50;99.00;;;;;;5053058;28;20021;-63
2024/01/19 10:14:19;;;;;;;1.10;0.98;;;6.30;99.10;;;;;;5049627;28;20041;-61
2024/01/19 10:16:47;;;;;;;0.75;0.75;;;6.30;99.90;;;;;;5042069;28;20387;-63
2024/01/19 10:19:14;;;;;;;1.48;0.90;;;6.20;99.90;;;;;;5042543;28;20491;-62
2024/01/19 10:21:40;;;;;;;0.80;0.80;;;6.20;99.50;;;;;;5041341;28;20543;-64
2024/01/19 10:24:19;;;;;;;1.02;0.77;;;6.10;99.90;;;;;;5043062;28;20105;-62
2024/01/19 10:26:57;;;;;;;1.15;1.05;;;6.10;99.90;;;;;;5041677;28;20418;-64
2024/01/19 10:29:23;;;;;;;0.90;0.60;;;6.20;99.90;;;;;;5041270;28;20460;-60
2024/01/19 10:31:51;;;;;;;1.33;1.13;;;6.20;99.90;;;;;;5042448;28;20075;-62
2024/01/19 10:34:17;;;;;;;1.40;1.30;;;6.40;99.70;;;;;;5040500;28;20026;-63
2024/01/19 10:36:44;;;;;;;1.83;1.25;;;6.50;99.90;;;;;;5041469;28;20024;-61
2024/01/19 10:39:23;;;;;;;1.20;0.90;;;6.30;99.60;;;;;;5042285;28;20025;-62
2024/01/19 10:41:50;;;;;;;1.10;1.00;;;6.10;99.90;;;;;;5038033;28;20374;-64
2024/01/19 10:44:20;;;;;;;2.00;1.90;;;6.20;99.90;;;;;;5042532;28;20029;-63
2024/01/19 10:46:46;;;;;;;1.48;1.38;;;6.30;99.50;;;;;;5042900;28;20017;-61
2024/01/19 10:49:15;;;;;;;1.58;1.48;;;6.30;99.90;;;;;;5041153;28;20018;-60
2024/01/19 10:51:43;;;;;;;2.10;1.90;;;6.50;99.30;;;;;;5042078;28;20029;-62
2024/01/19 10:54:18;;;;;;;2.03;1.90;;;6.60;99.10;;;;;;5050607;28;20032;-61
2024/01/19 10:56:45;;;;;;;2.88;2.40;;;6.60;99.00;;;;;;5056816;28;20478;-63
2024/01/19 10:59:14;;;;;;;2.67;2.30;;;6.70;98.20;;;;;;5056331;28;20017;-60
2024/01/19 11:01:40;;;;;;;2.50;2.22;;;6.80;99.10;;;;;;5056705;28;20017;-60
2024/01/19 11:04:08;;;;;;;3.47;2.53;;;6.90;98.70;;;;;;5056330;28;20024;-61
2024/01/19 11:06:38;;;;;;;2.80;2.50;;;6.90;97.50;;;;;;5056140;28;20017;-61
2024/01/19 11:09:08;;;;;;;2.58;2.17;;;7.00;97.50;;;;;;5056468;28;20360;-62
2024/01/19 11:11:42;;;;;;;3.63;3.33;;;7.20;97.20;;;;;;5048386;28;20440;-63
2024/01/19 11:14:09;;;;;;;5.15;4.65;;;7.20;97.10;;;;;;5046785;28;20475;-61
2024/01/19 11:16:44;;;;;;;4.25;3.85;;;7.30;96.90;;;;;;5044830;28;20064;-63
2024/01/19 11:19:10;;;;;;;4.55;3.95;;;7.20;96.40;;;;;;5044251;28;20124;-64
2024/01/19 11:21:37;;;;;;;4.70;4.30;;;7.20;97.40;;;;;;5046390;28;20024;-61
2024/01/19 11:24:04;;;;;;;4.82;4.32;;;7.20;97.60;;;;;;5045886;28;20476;-61
2024/01/19 11:26:40;;;;;;;4.10;3.70;;;7.10;97.80;;;;;;5044319;28;20033;-63
2024/01/19 11:29:31;;;;;;;4.38;3.97;;;7.20;97.60;;;;;;5045077;28;20017;-61
2024/01/19 11:31:57;;;;;;;4.90;4.38;;;7.30;97.60;;;;;;5044914;28;20021;-61
2024/01/19 11:34:41;;;;;;;3.10;2.70;;;7.30;97.70;;;;;;5045167;28;20029;-64
2024/01/19 11:37:08;;;;;;;4.55;4.15;;;7.20;97.30;;;;;;5046181;28;20096;-63
2024/01/19 11:39:41;;;;;;;3.83;3.42;;;7.00;97.80;;;;;;5044271;28;20051;-60
2024/01/19 11:42:10;;;;;;;3.28;2.97;;;6.80;97.90;;;;;;5044502;28;20028;-63
2024/01/19 11:44:46;;;;;;;3.97;3.67;;;6.70;98.80;;;;;;5044395;28;20053;-63
2024/01/19 11:47:41;;;;;;;4.72;4.22;;;6.70;98.30;;;;;;5044476;28;20022;-61
2024/01/19 11:50:12;;;;;;;3.80;3.50;;;6.70;98.60;;;;;;5042886;28;20044;-61
2024/01/19 11:52:39;;;;;;;3.53;3.22;;;6.70;98.90;;;;;;5044567;28;20091;-63
2024/01/19 11:55:27;;;;;;;2.92;2.70;;;6.70;98.90;;;;;;5041908;28;20116;-62
2024/01/19 11:57:53;;;;;;;2.80;2.60;;;6.70;98.80;;;;;;5035654;28;20414;-61
2024/01/19 12:00:19;;;;;;;3.60;3.25;;;6.80;99.10;;;;;;5035583;28;20044;-62
2024/01/19 12:02:46;;;;;;;3.10;2.80;;;6.80;98.70;;;;;;5034558;28;20380;-62
2024/01/19 12:05:12;;;;;;;3.40;3.10;;;6.80;98.90;;;;;;5034720;28;20021;-61
2024/01/19 12:07:39;;;;;;;3.95;3.28;;;6.90;98.50;;;;;;5035413;28;20061;-62
2024/01/19 12:10:12;;;;;;;5.72;5.13;;;7.00;98.40;;;;;;5035287;28;20053;-62
2024/01/19 12:12:38;;;;;;;4.00;3.50;;;7.00;99.10;;;;;;5034986;28;20263;-63
2024/01/19 12:15:07;;;;;;;5.25;4.35;;;6.90;99.90;;;;;;5035333;28;20045;-61
2024/01/19 12:17:36;;;;;;;4.40;4.00;;;6.80;99.90;;;;;;5035613;28;20484;-63
2024/01/19 12:20:03;;;;;;;3.38;3.08;;;6.50;98.20;;;;;;5034280;28;20041;-61
2024/01/19 12:22:31;;;;;;;3.65;3.28;;;6.50;99.90;;;;;;5035074;28;20034;-61
2024/01/19 12:25:18;;;;;;;1.85;1.75;;;6.60;99.70;;;;;;5035111;28;20033;-61
2024/01/19 12:27:45;;;;;;;1.50;1.30;;;6.60;99.10;;;;;;5035341;28;20381;-63
2024/01/19 12:30:15;;;;;;;0.70;0.60;;;6.20;98.00;;;;;;5035164;28;20048;-63
2024/01/19 12:32:42;;;;;;;0.93;0.70;;;6.00;99.30;;;;;;5035119;28;20029;-62
2024/01/19 12:35:08;;;;;;;1.05;0.75;;;5.70;99.90;;;;;;5034786;28;20041;-64
2024/01/19 12:37:34;;;;;;;1.23;1.13;;;5.60;99.00;;;;;;5034936;28;20025;-61
2024/01/19 12:40:21;;;;;;;1.00;0.90;;;5.60;99.10;;;;;;5034766;28;20044;-61
2024/01/19 12:42:47;;;;;;;0.60;0.60;;;5.80;99.20;;;;;;5034901;28;20021;-61